Allen Park, Michigan
Current Conditions -  °F | °C
As of 5:53 PM on Wednesday 26 Nov 2014 (Local Time) from KDTW Reporting Station
Light Snow Light Snow  
Wind Chill: 28°   Ceiling: 2500
Heat Index: 33°   Visibility: 9mi
Dew Point: 24°   Wind: 6mph
Humidity: 70%   Direction: 320°NW
Pressure: 30.1"   Gusts: NA
Location:  42.26°N, 83.22°W
Report Text: KDTW 262253Z 32005KT 9SM -SN OVC025 01/M04 A3010 RMK AO2 SNB24 SLP199 P0000 T00061044
Loading
Personal Weather Stations






























Interactive Weather Map New forecast layout! Learn more

10-Day Weather Forecast

Advertisements
Track Severe Weather on mobile